Time;durP1;ratioP1;P1;durP2;ratioP2;P2;SDS_P1;SDS_P2;PMS_P1;PMS_P2;Temp;Humidity;BMP_temperature;BMP_pressure;BME280_temperature;BME280_humidity;BME280_pressure;Samples;Min_cycle;Max_cycle;Signal;HPM_P1;HPM_P2
2021/11/08 00:01:41;;;;;;;34.80;21.02;;;;;;;7.19;81.68;99137.70;1780758;80;21047;-63
2021/11/08 00:04:08;;;;;;;37.83;21.15;;;;;;;7.18;81.67;99140.20;1775650;80;21005;-63
2021/11/08 00:06:35;;;;;;;35.30;22.02;;;;;;;7.16;81.66;99136.95;1775699;80;21756;-63
2021/11/08 00:09:05;;;;;;;39.83;21.77;;;;;;;7.14;81.63;99130.95;1780763;80;21018;-63
2021/11/08 00:11:35;;;;;;;32.05;19.60;;;;;;;7.12;81.53;99128.52;1778268;80;21032;-64
2021/11/08 00:14:02;;;;;;;41.20;22.50;;;;;;;7.10;81.59;99134.86;1754412;80;20992;-63
2021/11/08 00:16:42;;;;;;;33.58;19.55;;;;;;;7.09;81.65;99125.58;1777366;80;21043;-64
2021/11/08 00:21:44;;;;;;;36.28;20.92;;;;;;;7.09;81.75;99119.55;1782145;80;21099;-64
2021/11/08 00:24:10;;;;;;;29.02;19.62;;;;;;;7.09;81.73;99109.96;1748420;80;21520;-64
2021/11/08 00:26:34;;;;;;;30.27;19.40;;;;;;;7.09;81.61;99102.30;1780198;80;21087;-65
2021/11/08 00:29:04;;;;;;;33.18;19.85;;;;;;;7.05;81.57;99107.02;1784407;80;21059;-63
2021/11/08 00:31:30;;;;;;;32.83;20.30;;;;;;;7.04;81.56;99103.22;1750332;80;21456;-64
2021/11/08 00:33:59;;;;;;;31.25;19.30;;;;;;;7.02;81.60;99096.69;1786423;80;21031;-63
2021/11/08 00:36:29;;;;;;;32.03;20.32;;;;;;;7.02;81.62;99098.05;1781221;80;21507;-63
2021/11/08 00:38:58;;;;;;;36.13;20.72;;;;;;;7.03;81.70;99102.40;1770783;80;21024;-64
2021/11/08 00:41:25;;;;;;;30.77;19.55;;;;;;;7.05;81.70;99104.83;1786469;80;21039;-64
2021/11/08 00:43:52;;;;;;;36.35;20.77;;;;;;;7.09;81.69;99113.25;1779055;80;21093;-64
2021/11/08 00:46:18;;;;;;;34.63;20.15;;;;;;;7.11;81.64;99113.77;1781951;80;21539;-64
2021/11/08 00:48:45;;;;;;;29.18;18.48;;;;;;;7.11;81.60;99115.13;1781977;80;21228;-63
2021/11/08 00:51:11;;;;;;;37.88;21.45;;;;;;;7.10;81.65;99111.58;1786580;80;21035;-65
2021/11/08 00:53:40;;;;;;;39.20;20.62;;;;;;;7.12;81.65;99111.27;1775777;80;21050;-64
2021/11/08 00:56:11;;;;;;;33.83;19.87;;;;;;;7.13;81.58;99110.16;1784014;80;21099;-63
2021/11/08 00:58:42;;;;;;;36.35;20.08;;;;;;;7.13;81.64;99115.06;1776772;80;21008;-64
2021/11/08 01:01:12;;;;;;;31.85;19.98;;;;;;;7.12;81.66;99115.38;1781766;80;21149;-64
2021/11/08 01:03:43;;;;;;;38.67;21.62;;;;;;;7.13;81.66;99115.06;1776440;80;21003;-64
2021/11/08 01:06:09;;;;;;;34.25;20.80;;;;;;;7.12;81.71;99118.94;1770898;80;21483;-64
2021/11/08 01:08:36;;;;;;;34.73;20.95;;;;;;;7.11;81.65;99115.13;1781799;80;21001;-64
2021/11/08 01:11:03;;;;;;;36.13;22.27;;;;;;;7.08;81.56;99113.80;1786426;80;21102;-63
2021/11/08 01:13:30;;;;;;;30.05;20.90;;;;;;;7.04;81.54;99109.52;1774990;80;21238;-63
2021/11/08 01:15:57;;;;;;;35.10;20.32;;;;;;;7.00;81.67;99103.56;1781239;80;21538;-63
2021/11/08 01:18:24;;;;;;;30.72;20.55;;;;;;;6.99;81.78;99096.48;1775724;80;21071;-64
2021/11/08 01:20:51;;;;;;;39.38;22.70;;;;;;;6.98;81.81;99109.36;1775949;80;21540;-65
2021/11/08 01:23:24;;;;;;;38.88;22.07;;;;;;;6.97;81.88;99110.48;1738439;82;21049;-63
2021/11/08 01:25:58;;;;;;;33.38;21.30;;;;;;;6.95;81.98;99104.49;1722685;82;21190;-63
2021/11/08 01:28:27;;;;;;;41.28;23.40;;;;;;;6.92;82.07;99100.45;1770545;80;21465;-65
2021/11/08 01:30:49;;;;;;;39.18;23.15;;;;;;;6.91;82.21;99107.03;1767177;80;21049;-65
2021/11/08 01:33:17;;;;;;;36.60;22.13;;;;;;;6.90;82.23;99104.59;1751987;80;21072;-64
2021/11/08 01:35:55;;;;;;;40.95;23.30;;;;;;;6.86;82.33;99092.65;1737716;82;21085;-66
2021/11/08 01:40:44;;;;;;;34.35;21.37;;;;;;;6.82;82.49;99090.49;1709771;83;21072;-64
2021/11/08 01:43:12;;;;;;;37.73;22.85;;;;;;;6.82;82.45;99089.13;1716211;83;21020;-63
2021/11/08 01:45:40;;;;;;;38.23;23.30;;;;;;;6.79;82.48;99086.21;1722352;83;21013;-64
2021/11/08 01:48:07;;;;;;;38.90;21.82;;;;;;;6.77;82.51;99093.34;1741459;82;21529;-64
2021/11/08 01:50:35;;;;;;;36.77;21.97;;;;;;;6.74;82.53;99089.84;1712151;82;21052;-64
2021/11/08 01:53:01;;;;;;;35.95;22.70;;;;;;;6.72;82.61;99104.39;1730489;82;21005;-63
2021/11/08 01:55:28;;;;;;;34.10;21.15;;;;;;;6.71;82.57;99106.89;1743686;82;21022;-63
2021/11/08 01:57:55;;;;;;;36.40;21.95;;;;;;;6.66;82.57;99093.30;1743641;82;21590;-65
2021/11/08 02:00:22;;;;;;;35.80;22.77;;;;;;;6.62;82.69;99096.41;1743576;82;21088;-64
2021/11/08 02:02:49;;;;;;;42.10;22.02;;;;;;;6.56;82.76;99088.29;1695979;82;21052;-64
2021/11/08 02:05:15;;;;;;;35.35;21.15;;;;;;;6.54;82.88;99084.22;1710482;83;21070;-66
2021/11/08 02:07:43;;;;;;;33.48;20.32;;;;;;;6.51;82.95;99080.72;1730130;82;21071;-64
2021/11/08 02:10:10;;;;;;;41.28;20.43;;;;;;;6.48;83.01;99082.16;1724811;82;20997;-64
2021/11/08 02:12:37;;;;;;;38.05;20.60;;;;;;;6.47;83.05;99078.33;1752737;80;21027;-65
2021/11/08 02:15:06;;;;;;;37.83;22.52;;;;;;;6.45;83.14;99090.40;1778304;80;21511;-64
2021/11/08 02:17:33;;;;;;;37.65;22.67;;;;;;;6.46;83.09;99087.11;1775026;80;21081;-64
2021/11/08 02:20:25;;;;;;;39.03;22.70;;;;;;;6.43;83.04;99089.89;1744719;80;20989;-64
2021/11/08 02:22:52;;;;;;;37.75;24.05;;;;;;;6.40;82.96;99089.13;1775766;80;21276;-64
2021/11/08 02:25:21;;;;;;;38.73;23.87;;;;;;;6.33;82.99;99082.69;1774668;80;21486;-64
2021/11/08 02:27:49;;;;;;;34.25;21.05;;;;;;;6.28;83.04;99086.88;1774373;80;21112;-65
2021/11/08 02:30:16;;;;;;;34.18;21.17;;;;;;;6.25;83.05;99080.65;1774340;80;21636;-64
2021/11/08 02:32:43;;;;;;;34.35;20.15;;;;;;;6.23;83.12;99081.50;1739984;80;21037;-64
2021/11/08 02:35:14;;;;;;;34.55;20.72;;;;;;;6.21;83.20;99086.45;1773914;80;21467;-64
2021/11/08 02:37:42;;;;;;;34.23;21.30;;;;;;;6.19;83.12;99085.39;1770930;80;21007;-64
2021/11/08 02:40:17;;;;;;;34.90;22.27;;;;;;;6.18;83.12;99084.33;1741939;80;21150;-63
2021/11/08 02:42:38;;;;;;;35.20;20.60;;;;;;;6.17;83.12;99079.98;1772992;80;21046;-64
2021/11/08 02:45:08;;;;;;;35.58;21.17;;;;;;;6.15;83.21;99084.39;1773032;80;21017;-64
2021/11/08 02:47:37;;;;;;;35.25;20.40;;;;;;;6.14;83.23;99081.38;1771674;80;21037;-64
2021/11/08 02:50:05;;;;;;;31.97;20.80;;;;;;;6.12;83.20;99085.54;1720227;81;21013;-64
2021/11/08 02:52:32;;;;;;;35.73;21.40;;;;;;;6.07;83.10;99095.45;1744653;81;21231;-64
2021/11/08 02:55:01;;;;;;;37.58;20.32;;;;;;;6.02;83.15;99087.88;1774686;80;21016;-65
2021/11/08 02:57:28;;;;;;;40.20;22.20;;;;;;;5.97;83.21;99097.77;1774482;80;21251;-64
2021/11/08 02:59:58;;;;;;;39.98;20.25;;;;;;;5.93;83.28;99104.16;1775476;80;21056;-63
2021/11/08 03:02:23;;;;;;;30.57;18.98;;;;;;;5.89;83.40;99099.01;1773505;80;21041;-64
2021/11/08 03:04:53;;;;;;;37.03;20.80;;;;;;;5.85;83.51;99097.45;1773805;80;21124;-65
2021/11/08 03:07:22;;;;;;;34.08;19.92;;;;;;;5.82;83.68;99098.84;1775170;80;21042;-63
2021/11/08 03:09:56;;;;;;;32.85;20.92;;;;;;;5.79;83.76;99092.61;1762223;80;21013;-63
2021/11/08 03:12:34;;;;;;;35.43;20.37;;;;;;;5.76;83.83;99085.02;1771271;80;21508;-64
2021/11/08 03:15:11;;;;;;;43.00;22.62;;;;;;;5.72;83.89;99086.16;1775127;80;21010;-63
2021/11/08 03:17:42;;;;;;;28.70;18.98;;;;;;;5.69;83.93;99092.23;1734219;82;21343;-64
2021/11/08 03:20:11;;;;;;;29.57;18.65;;;;;;;5.67;83.93;99093.62;1743499;82;20996;-64
2021/11/08 03:22:39;;;;;;;36.77;18.77;;;;;;;5.65;84.04;99099.93;1743650;82;21068;-64
2021/11/08 03:25:26;;;;;;;30.95;19.05;;;;;;;5.62;84.09;99087.69;1738845;82;21536;-63
2021/11/08 03:30:15;;;;;;;35.45;20.12;;;;;;;5.62;84.30;99097.25;1727371;82;22297;-64
2021/11/08 03:32:47;;;;;;;40.67;20.97;;;;;;;5.63;84.41;99091.23;1712381;83;21017;-64
2021/11/08 03:35:14;;;;;;;30.68;19.92;;;;;;;5.63;84.39;99093.97;1694596;83;21107;-66
2021/11/08 03:37:44;;;;;;;35.35;22.70;;;;;;;5.64;84.42;99083.28;1687381;83;21536;-64
2021/11/08 03:40:17;;;;;;;35.30;20.20;;;;;;;5.64;84.43;99079.19;1698456;82;21036;-66
2021/11/08 03:42:47;;;;;;;37.40;21.62;;;;;;;5.62;84.36;99080.03;1697738;83;21378;-64
2021/11/08 03:45:14;;;;;;;33.83;19.50;;;;;;;5.60;84.33;99080.33;1730392;82;21027;-64
2021/11/08 03:47:40;;;;;;;32.63;19.00;;;;;;;5.55;84.37;99074.94;1693203;83;21000;-64
2021/11/08 03:50:08;;;;;;;34.45;20.57;;;;;;;5.53;84.53;99070.32;1720855;82;22246;-64
2021/11/08 03:52:36;;;;;;;33.78;19.27;;;;;;;5.52;84.62;99074.17;1728911;82;21059;-64
2021/11/08 03:55:05;;;;;;;31.52;19.65;;;;;;;5.51;84.62;99076.09;1721367;82;21531;-64
2021/11/08 03:57:33;;;;;;;30.80;18.35;;;;;;;5.48;84.67;99072.05;1721707;82;21046;-65
2021/11/08 03:59:59;;;;;;;30.35;18.70;;;;;;;5.50;84.71;99077.20;1781202;80;21074;-65
2021/11/08 04:02:26;;;;;;;27.37;18.05;;;;;;;5.50;84.68;99063.55;1786797;78;21572;-65
2021/11/08 04:04:53;;;;;;;29.95;18.65;;;;;;;5.51;84.70;99074.72;1780789;80;21556;-65
2021/11/08 04:07:19;;;;;;;34.85;20.65;;;;;;;5.50;84.67;99077.20;1756098;80;21498;-66
2021/11/08 04:09:47;;;;;;;33.95;20.45;;;;;;;5.48;84.63;99084.34;1778071;80;21444;-64
2021/11/08 04:12:15;;;;;;;31.48;17.57;;;;;;;5.46;84.67;99083.00;1750252;80;21540;-63
2021/11/08 04:14:43;;;;;;;39.73;19.90;;;;;;;5.44;84.69;99081.14;1777261;80;20993;-64
2021/11/08 04:17:10;;;;;;;31.15;18.82;;;;;;;5.41;84.74;99079.00;1780693;80;21438;-66
2021/11/08 04:19:36;;;;;;;29.90;18.52;;;;;;;5.38;84.82;99083.12;1727289;82;21095;-64
2021/11/08 04:22:05;;;;;;;33.98;18.52;;;;;;;5.36;84.88;99077.95;1729951;82;21029;-64
2021/11/08 04:24:32;;;;;;;35.08;19.37;;;;;;;5.36;84.91;99081.23;1713931;83;20993;-64
2021/11/08 04:27:01;;;;;;;31.50;18.87;;;;;;;5.34;84.96;99076.64;1716044;83;21044;-63
2021/11/08 04:29:28;;;;;;;30.55;18.77;;;;;;;5.33;84.95;99076.36;1721135;83;20991;-64
2021/11/08 04:31:58;;;;;;;30.77;17.77;;;;;;;5.33;84.99;99077.73;1711459;83;21149;-63
2021/11/08 04:34:28;;;;;;;29.02;18.37;;;;;;;5.33;85.00;99085.92;1685620;83;21089;-64
2021/11/08 04:37:49;;;;;;;29.12;18.07;;;;;;;5.32;84.93;99093.30;1771691;80;21036;-64
2021/11/08 04:42:06;;;;;;;26.42;16.90;;;;;;;5.28;84.89;99105.95;1780822;80;21067;-64
2021/11/08 04:44:49;;;;;;;36.20;18.50;;;;;;;5.26;84.92;99114.98;1753872;80;22440;-63
2021/11/08 04:47:48;;;;;;;28.17;18.40;;;;;;;5.22;84.92;99118.06;1777153;80;21012;-64
2021/11/08 04:55:06;;;;;;;34.88;19.20;;;;;;;5.11;85.16;99112.73;1773063;80;21053;-66
2021/11/08 05:22:34;;;;;;;29.05;17.85;;;;;;;5.07;85.83;99121.23;1788608;78;21097;-63
2021/11/08 05:30:10;;;;;;;27.55;16.80;;;;;;;5.10;85.83;99139.77;1759885;80;21490;-64
2021/11/08 05:32:46;;;;;;;26.93;16.87;;;;;;;5.10;85.80;99147.95;1738982;82;21127;-66
2021/11/08 05:35:14;;;;;;;30.40;17.10;;;;;;;5.11;85.84;99150.97;1774109;80;21504;-64
2021/11/08 05:37:44;;;;;;;32.42;18.50;;;;;;;5.13;85.84;99151.22;1740539;82;21080;-64
2021/11/08 05:40:16;;;;;;;26.02;16.37;;;;;;;5.13;85.87;99147.13;1762897;80;21537;-64
2021/11/08 05:42:43;;;;;;;30.77;17.32;;;;;;;5.14;85.89;99148.73;1740331;82;21039;-65
2021/11/08 05:45:12;;;;;;;27.87;18.05;;;;;;;5.14;85.82;99144.64;1763360;80;21130;-65
2021/11/08 05:47:38;;;;;;;30.75;16.70;;;;;;;5.14;85.76;99150.92;1726864;82;21048;-66
2021/11/08 05:50:07;;;;;;;34.10;17.37;;;;;;;5.14;85.74;99160.48;1712441;83;21139;-64
2021/11/08 05:52:34;;;;;;;27.60;16.82;;;;;;;5.14;85.79;99166.48;1697270;82;21036;-65
2021/11/08 05:55:00;;;;;;;28.87;18.10;;;;;;;5.15;85.85;99172.23;1695006;83;21075;-65
2021/11/08 06:00:25;;;;;;;33.35;19.37;;;;;;;5.17;85.87;99172.76;1709179;83;21236;-66
2021/11/08 06:49:27;;;;;;;27.40;15.83;;;;;;;5.96;84.60;99205.56;1747150;81;21124;-63
2021/11/08 06:51:55;;;;;;;29.82;17.48;;;;;;;6.01;84.47;99213.42;1711286;83;20936;-63
2021/11/08 06:54:25;;;;;;;28.00;15.75;;;;;;;6.03;84.41;99217.50;1712518;83;20952;-64
2021/11/08 06:56:58;;;;;;;33.95;18.37;;;;;;;6.07;84.22;99208.17;1741015;81;20893;-65
2021/11/08 06:59:23;;;;;;;33.92;17.82;;;;;;;6.10;84.22;99208.95;1742097;82;21507;-63
2021/11/08 07:01:48;;;;;;;25.95;16.15;;;;;;;6.16;84.03;99217.89;1726672;82;20968;-62
2021/11/08 07:04:17;;;;;;;26.40;16.27;;;;;;;6.18;84.00;99207.44;1730878;82;21007;-62
2021/11/08 07:06:44;;;;;;;24.90;16.10;;;;;;;6.21;83.95;99204.11;1721537;83;21144;-63
2021/11/08 07:09:15;;;;;;;28.45;16.67;;;;;;;6.24;83.96;99208.19;1751850;81;21126;-63
2021/11/08 07:11:42;;;;;;;23.80;14.85;;;;;;;6.27;83.88;99203.48;1729980;82;20987;-63
2021/11/08 07:14:09;;;;;;;28.05;15.40;;;;;;;6.33;83.94;99218.14;1729343;82;21083;-64
2021/11/08 07:16:38;;;;;;;23.02;15.13;;;;;;;6.39;83.76;99200.27;1695630;83;21040;-64
2021/11/08 07:19:06;;;;;;;26.50;15.45;;;;;;;6.43;83.56;99202.68;1775179;80;21064;-64
2021/11/08 07:21:36;;;;;;;28.45;15.00;;;;;;;6.46;83.50;99208.92;1779289;80;21087;-63
2021/11/08 07:24:05;;;;;;;26.00;14.63;;;;;;;6.48;83.49;99210.80;1738239;82;20993;-63
2021/11/08 07:26:31;;;;;;;28.57;16.02;;;;;;;6.51;83.11;99215.67;1773406;80;21005;-63
2021/11/08 07:28:58;;;;;;;24.55;14.83;;;;;;;6.52;83.22;99214.55;1780625;80;21086;-64
2021/11/08 07:31:25;;;;;;;22.48;14.45;;;;;;;6.56;83.30;99218.88;1777038;80;21030;-63
2021/11/08 07:33:51;;;;;;;22.70;14.30;;;;;;;6.59;82.71;99221.00;1742422;81;21913;-64
2021/11/08 07:36:17;;;;;;;24.65;15.58;;;;;;;6.58;82.56;99228.39;1763637;80;21075;-64
2021/11/08 07:38:45;;;;;;;24.82;14.45;;;;;;;6.60;82.60;99232.78;1743912;81;21025;-64
2021/11/08 07:41:12;;;;;;;24.32;15.18;;;;;;;6.60;82.42;99230.04;1738751;82;20994;-64
2021/11/08 07:43:41;;;;;;;26.00;15.90;;;;;;;6.56;82.39;99236.12;1727594;82;21532;-64
2021/11/08 07:46:08;;;;;;;20.72;14.55;;;;;;;6.56;82.47;99241.59;1684354;83;21955;-64
2021/11/08 07:48:39;;;;;;;21.37;14.15;;;;;;;6.57;82.56;99241.84;1727903;82;21087;-63
2021/11/08 07:51:02;;;;;;;24.47;15.18;;;;;;;6.60;82.31;99253.31;1735118;82;21170;-63
2021/11/08 07:53:29;;;;;;;25.48;14.45;;;;;;;6.60;82.31;99261.52;1778139;80;20992;-63
2021/11/08 07:55:56;;;;;;;24.47;15.10;;;;;;;6.62;82.33;99259.30;1779404;80;21007;-62
2021/11/08 07:58:23;;;;;;;26.62;15.68;;;;;;;6.66;82.45;99256.20;1750094;80;21081;-62
2021/11/08 08:00:49;;;;;;;25.52;15.30;;;;;;;6.75;82.79;99265.38;1781008;79;21055;-63
2021/11/08 08:03:16;;;;;;;23.45;14.13;;;;;;;6.87;83.10;99256.67;1763695;80;21114;-64
2021/11/08 08:05:42;;;;;;;21.10;14.05;;;;;;;7.10;83.15;99257.34;1734623;82;20997;-65
2021/11/08 08:08:09;;;;;;;18.37;12.73;;;;;;;7.33;83.01;99254.72;1743954;82;21002;-65
2021/11/08 08:10:35;;;;;;;22.67;14.35;;;;;;;7.54;82.44;99250.44;1695283;82;21835;-64
2021/11/08 08:13:02;;;;;;;22.42;14.87;;;;;;;7.69;81.03;99266.34;1705205;83;20993;-65
2021/11/08 08:15:29;;;;;;;20.37;12.35;;;;;;;7.75;80.59;99273.33;1781608;80;21607;-64
2021/11/08 08:17:59;;;;;;;20.20;13.32;;;;;;;7.76;79.95;99276.31;1759638;80;21059;-65
2021/11/08 08:20:28;;;;;;;22.35;12.53;;;;;;;7.76;79.72;99270.03;1756589;81;21043;-65
2021/11/08 08:22:55;;;;;;;23.98;13.48;;;;;;;7.76;79.65;99271.41;1753227;81;21089;-63
2021/11/08 08:25:21;;;;;;;18.65;12.25;;;;;;;7.79;79.74;99275.72;1752401;81;21036;-64
2021/11/08 08:27:49;;;;;;;23.65;12.37;;;;;;;7.84;79.40;99273.42;1730289;81;21576;-63
2021/11/08 08:30:17;;;;;;;24.18;14.18;;;;;;;7.87;79.14;99274.72;1730299;81;21001;-62
2021/11/08 08:32:43;;;;;;;18.95;12.30;;;;;;;7.90;78.93;99275.47;1755306;81;21033;-66
2021/11/08 08:35:10;;;;;;;23.30;11.00;;;;;;;7.89;78.64;99280.17;1751591;81;21376;-64
2021/11/08 08:37:38;;;;;;;23.70;12.55;;;;;;;7.90;78.33;99264.50;1749599;81;21498;-63
2021/11/08 08:40:05;;;;;;;27.42;12.53;;;;;;;7.93;78.63;99275.43;1752449;81;21071;-63
2021/11/08 08:42:33;;;;;;;21.93;11.75;;;;;;;8.04;78.77;99275.45;1752941;81;21036;-62
2021/11/08 08:45:01;;;;;;;24.12;12.47;;;;;;;8.19;78.11;99282.52;1748951;81;21618;-64
2021/11/08 08:47:28;;;;;;;19.00;11.38;;;;;;;8.23;77.15;99273.92;1778497;79;21008;-63
2021/11/08 08:49:57;;;;;;;25.20;12.55;;;;;;;8.17;77.01;99277.92;1750856;81;21072;-62
2021/11/08 08:52:25;;;;;;;19.48;11.57;;;;;;;8.11;76.83;99289.56;1750746;81;21095;-64
2021/11/08 08:54:53;;;;;;;16.07;10.53;;;;;;;8.02;76.58;99288.11;1751158;81;21009;-63
2021/11/08 08:57:20;;;;;;;18.00;11.90;;;;;;;8.00;76.63;99282.69;1752475;81;21560;-64
2021/11/08 08:59:46;;;;;;;17.02;11.22;;;;;;;8.03;76.99;99286.19;1751597;81;21053;-63
2021/11/08 09:02:12;;;;;;;21.25;11.35;;;;;;;8.15;76.72;99291.13;1742885;81;20986;-63
2021/11/08 09:04:39;;;;;;;22.17;11.28;;;;;;;8.26;76.95;99285.65;1762037;81;21008;-63
2021/11/08 09:07:07;;;;;;;23.30;13.70;;;;;;;8.34;76.75;99287.41;1755773;81;21005;-62
2021/11/08 09:09:43;;;;;;;19.98;11.70;;;;;;;8.40;76.38;99291.09;1770801;81;21208;-62
2021/11/08 09:12:10;;;;;;;20.62;12.15;;;;;;;8.51;76.27;99302.63;1763530;81;21562;-62
2021/11/08 09:14:44;;;;;;;17.57;11.03;;;;;;;8.57;75.72;99300.62;1753288;80;21471;-63
2021/11/08 09:17:13;;;;;;;19.12;11.43;;;;;;;8.62;75.68;99295.55;1766296;79;21072;-63
2021/11/08 09:19:40;;;;;;;21.00;12.20;;;;;;;8.65;75.17;99299.05;1738143;80;21007;-62
2021/11/08 09:22:13;;;;;;;17.57;11.25;;;;;;;8.63;74.87;99288.95;1759373;80;21032;-63
2021/11/08 09:24:41;;;;;;;18.77;10.95;;;;;;;8.62;74.51;99284.02;1760936;80;21472;-64
2021/11/08 09:27:08;;;;;;;19.98;11.85;;;;;;;8.68;74.59;99288.01;1758128;80;21051;-62
2021/11/08 09:29:37;;;;;;;19.55;12.80;;;;;;;8.74;74.53;99290.31;1772341;80;21046;-65
2021/11/08 09:32:04;;;;;;;16.55;11.45;;;;;;;8.83;74.57;99283.50;1771453;80;21469;-63
2021/11/08 09:34:37;;;;;;;16.65;10.45;;;;;;;8.92;74.08;99286.86;1743564;80;21037;-63
2021/11/08 09:37:03;;;;;;;16.65;10.95;;;;;;;8.97;74.05;99281.23;1772687;80;21108;-63
2021/11/08 09:39:34;;;;;;;15.00;10.90;;;;;;;9.01;73.36;99280.28;1769232;80;21056;-64
2021/11/08 09:41:59;;;;;;;19.52;12.00;;;;;;;9.00;73.48;99267.67;1773653;80;21592;-62
2021/11/08 09:44:28;;;;;;;18.87;11.33;;;;;;;9.01;73.19;99271.22;1773161;80;21306;-62
2021/11/08 09:46:57;;;;;;;18.75;10.98;;;;;;;8.97;72.63;99264.16;1773330;80;21527;-63
2021/11/08 09:49:25;;;;;;;26.73;11.25;;;;;;;8.89;72.45;99278.67;1774454;80;21090;-64
2021/11/08 09:51:54;;;;;;;17.65;11.28;;;;;;;8.87;72.54;99293.30;1770481;80;21480;-64
2021/11/08 09:54:27;;;;;;;14.87;9.18;;;;;;;8.88;72.44;99289.42;1770705;81;21111;-62
2021/11/08 09:56:50;;;;;;;14.07;9.03;;;;;;;8.92;71.96;99292.36;1743057;80;20958;-64
2021/11/08 09:59:17;;;;;;;18.50;9.30;;;;;;;8.98;72.19;99296.03;1768123;80;21066;-64
2021/11/08 10:01:47;;;;;;;16.57;9.15;;;;;;;9.03;71.81;99296.45;1772314;79;21996;-64
2021/11/08 10:04:14;;;;;;;17.87;9.05;;;;;;;9.03;70.63;99299.20;1771789;80;21009;-61
2021/11/08 10:06:41;;;;;;;16.27;8.40;;;;;;;8.94;69.84;99306.02;1769669;80;21114;-64
2021/11/08 10:09:10;;;;;;;20.00;7.80;;;;;;;8.87;69.54;99307.84;1772064;80;22248;-62
2021/11/08 10:11:40;;;;;;;11.73;7.28;;;;;;;8.82;69.68;99305.22;1772163;80;21105;-63
2021/11/08 10:14:08;;;;;;;14.25;7.80;;;;;;;8.83;69.65;99313.73;1769570;80;49484;-62
2021/11/08 10:16:39;;;;;;;16.42;7.72;;;;;;;8.85;69.49;99309.29;1771856;80;21042;-63
2021/11/08 10:19:09;;;;;;;11.78;6.95;;;;;;;8.90;68.52;99313.28;1771066;80;21079;-64
2021/11/08 10:21:45;;;;;;;13.08;7.28;;;;;;;8.93;68.26;99315.39;1774431;80;21075;-63
2021/11/08 10:24:16;;;;;;;15.88;7.12;;;;;;;9.04;67.94;99305.52;1774696;80;21027;-62
2021/11/08 10:26:43;;;;;;;16.25;6.60;;;;;;;9.16;67.38;99311.22;1774845;80;21907;-63
2021/11/08 10:29:17;;;;;;;11.08;6.00;;;;;;;9.24;66.47;99306.91;1774439;79;21035;-62
2021/11/08 10:31:48;;;;;;;16.60;6.90;;;;;;;9.30;65.96;99322.72;1770418;80;21092;-64
2021/11/08 10:34:16;;;;;;;12.75;6.70;;;;;;;9.34;64.65;99326.44;1776531;80;21069;-63
2021/11/08 10:36:44;;;;;;;13.20;7.17;;;;;;;9.35;64.49;99330.80;1758769;81;21007;-64
2021/11/08 10:39:13;;;;;;;12.60;6.45;;;;;;;9.40;64.23;99327.12;1759529;81;21124;-63
2021/11/08 10:41:45;;;;;;;13.30;6.22;;;;;;;9.43;64.44;99324.55;1773580;80;21042;-68
2021/11/08 10:44:22;;;;;;;11.97;5.72;;;;;;;9.45;64.38;99319.52;1776122;80;21106;-64
2021/11/08 10:47:13;;;;;;;13.72;6.08;;;;;;;9.45;63.82;99318.15;1775145;80;21042;-62
2021/11/08 10:49:43;;;;;;;10.78;5.95;;;;;;;9.38;63.44;99315.06;1772510;80;21044;-63
2021/11/08 10:52:18;;;;;;;12.03;5.30;;;;;;;9.31;63.42;99310.02;1746117;80;20998;-63
2021/11/08 10:54:54;;;;;;;10.05;5.10;;;;;;;9.21;63.00;99300.67;1745581;80;21313;-62
2021/11/08 10:57:22;;;;;;;10.98;6.05;;;;;;;9.12;62.84;99294.58;1775356;80;21077;-64
2021/11/08 10:59:52;;;;;;;13.50;5.20;;;;;;;9.06;63.12;99292.28;1776466;80;21084;-63
2021/11/08 11:02:25;;;;;;;12.18;5.17;;;;;;;9.02;63.18;99292.09;1775594;80;21039;-64
2021/11/08 11:04:58;;;;;;;10.38;5.87;;;;;;;9.02;63.36;99286.59;1776734;80;21117;-62
2021/11/08 11:07:29;;;;;;;;;;;;;;;9.00;63.17;99288.29;1776580;80;21047;-64
2021/11/08 11:10:10;;;;;;;12.55;5.95;;;;;;;9.00;63.32;99286.92;1776698;80;20409;-63
2021/11/08 11:12:43;;;;;;;13.60;5.55;;;;;;;8.98;63.17;99285.04;1774843;80;20970;-64
2021/11/08 11:15:14;;;;;;;10.90;4.97;;;;;;;8.97;62.86;99295.77;1775433;80;21003;-63
2021/11/08 11:17:50;;;;;;;9.95;4.78;;;;;;;8.94;61.91;99307.97;1781317;80;21087;-65
2021/11/08 11:20:24;;;;;;;9.53;5.03;;;;;;;8.88;62.27;99303.16;1788333;80;21003;-63
2021/11/08 11:23:12;;;;;;;10.43;4.62;;;;;;;8.83;62.11;99303.29;1788248;79;21058;-64
2021/11/08 11:25:41;;;;;;;8.68;3.72;;;;;;;8.79;62.00;99306.41;1785229;80;21038;-63
2021/11/08 11:28:09;;;;;;;9.80;4.47;;;;;;;8.74;61.80;99316.41;1786845;80;20971;-63
2021/11/08 11:30:44;;;;;;;6.75;3.77;;;;;;;8.70;61.81;99322.84;1787638;80;21105;-63
2021/11/08 11:33:13;;;;;;;11.55;5.03;;;;;;;8.68;62.18;99319.59;1787474;80;21069;-65
2021/11/08 11:35:54;;;;;;;10.65;4.42;;;;;;;8.64;62.55;99314.73;1789212;80;21065;-64
2021/11/08 11:38:28;;;;;;;10.63;4.60;;;;;;;8.66;62.58;99314.41;1783703;80;22105;-63
2021/11/08 11:41:24;;;;;;;8.55;3.90;;;;;;;8.66;62.95;99313.59;1788701;80;21604;-64
2021/11/08 11:43:59;;;;;;;9.03;4.47;;;;;;;8.66;62.78;99300.69;1787452;80;21167;-64
2021/11/08 11:46:29;;;;;;;10.25;4.50;;;;;;;8.67;62.59;99305.59;1785929;80;21046;-63
2021/11/08 11:48:57;;;;;;;6.45;3.55;;;;;;;8.67;62.87;99297.36;1789312;80;21022;-63
2021/11/08 11:51:27;;;;;;;7.40;4.22;;;;;;;8.67;62.77;99299.55;1752166;80;21463;-63
2021/11/08 11:53:55;;;;;;;10.32;4.70;;;;;;;8.66;63.09;99303.43;1789088;80;21006;-64
2021/11/08 11:56:24;;;;;;;9.58;4.55;;;;;;;8.67;62.88;99308.34;1754918;80;21605;-63
2021/11/08 11:58:54;;;;;;;12.10;4.75;;;;;;;8.66;62.77;99302.05;1789186;80;21006;-62
2021/11/08 12:01:23;;;;;;;9.43;4.55;;;;;;;8.65;62.92;99300.41;1789089;80;20983;-63
2021/11/08 12:03:51;;;;;;;11.90;5.87;;;;;;;8.66;63.20;99297.94;1789239;80;21011;-63
2021/11/08 12:06:30;;;;;;;9.18;4.60;;;;;;;8.69;63.41;99303.35;1788392;80;21464;-65
2021/11/08 12:08:59;;;;;;;17.67;6.55;;;;;;;8.69;63.22;99301.42;1760606;80;23307;-64
2021/11/08 12:11:32;;;;;;;9.83;4.90;;;;;;;8.71;62.99;99327.20;1757899;80;21424;-63
2021/11/08 12:14:03;;;;;;;9.00;4.40;;;;;;;8.71;62.90;99321.71;1788365;80;21100;-63
2021/11/08 12:16:33;;;;;;;15.18;5.85;;;;;;;8.73;62.61;99320.84;1789049;80;21514;-63
2021/11/08 12:19:01;;;;;;;11.80;5.75;;;;;;;8.74;62.50;99314.22;1782647;80;21067;-63
2021/11/08 12:21:31;;;;;;;8.23;3.62;;;;;;;8.74;62.45;99328.77;1739946;82;21203;-64
2021/11/08 12:24:00;;;;;;;12.82;3.83;;;;;;;8.76;62.26;99329.28;1745388;81;20978;-64
2021/11/08 12:26:30;;;;;;;9.10;4.62;;;;;;;8.77;61.63;99320.45;1736580;82;21547;-64
2021/11/08 12:29:13;;;;;;;7.92;3.98;;;;;;;8.76;61.65;99323.78;1712553;83;21602;-64
2021/11/08 12:31:39;;;;;;;14.60;4.65;;;;;;;8.74;61.49;99330.14;1711817;83;21060;-65
2021/11/08 12:34:14;;;;;;;12.55;5.15;;;;;;;8.75;61.59;99333.71;1729020;81;20966;-63
2021/11/08 12:36:57;;;;;;;14.30;5.20;;;;;;;8.76;61.33;99336.14;1699886;83;20991;-63
2021/11/08 12:39:25;;;;;;;11.15;5.03;;;;;;;8.76;61.41;99346.31;1717060;83;21015;-64
2021/11/08 12:41:56;;;;;;;10.13;4.40;;;;;;;8.75;61.44;99341.38;1713545;83;21035;-65
2021/11/08 12:44:27;;;;;;;11.28;4.00;;;;;;;8.76;61.65;99344.94;1743402;82;21193;-63
2021/11/08 12:46:58;;;;;;;8.53;4.25;;;;;;;8.76;61.48;99336.14;1726877;81;21154;-63
2021/11/08 12:49:52;;;;;;;12.90;5.15;;;;;;;8.76;61.56;99339.45;1718658;83;21327;-63
2021/11/08 12:52:29;;;;;;;11.40;4.95;;;;;;;8.74;61.74;99342.51;1722834;83;22046;-62
2021/11/08 12:55:03;;;;;;;14.63;4.65;;;;;;;8.73;61.79;99340.89;1692097;83;21547;-63
2021/11/08 12:57:30;;;;;;;16.07;5.17;;;;;;;8.72;61.76;99351.61;1715537;82;21076;-63
2021/11/08 13:00:19;;;;;;;9.48;4.30;;;;;;;8.72;61.68;99346.67;1705324;82;21078;-64
2021/11/08 13:02:54;;;;;;;11.88;4.17;;;;;;;8.71;61.74;99343.14;1766914;80;21505;-63
2021/11/08 13:05:30;;;;;;;12.28;4.22;;;;;;;8.69;61.83;99342.62;1774932;80;21474;-64
2021/11/08 13:08:00;;;;;;;11.90;4.28;;;;;;;8.68;61.60;99352.01;1775049;80;21639;-64
2021/11/08 13:10:37;;;;;;;14.47;4.95;;;;;;;8.68;61.50;99358.88;1772709;80;20970;-63
2021/11/08 13:13:08;;;;;;;13.95;4.47;;;;;;;8.69;61.29;99356.36;1769235;80;21855;-64
2021/11/08 13:15:33;;;;;;;12.10;4.50;;;;;;;8.69;61.17;99354.98;1776043;80;21626;-63